To NAV CANADA Home Page Login to a new session Search on AWWS site Disclaimer Vers la page française équivalente Tips FAQ What's new on the site To the Forecasts and Observations / NOTAM section To "File a Flight Plan" website Publications and other links Update of the User's profile FIC Telephone Numbers My Weather Data Folder Route Weather Data Regional Weather Data Local Weather Data To the Forecasts and Observations / NOTAM section
Request Generated 04/24/2019 at 15:59:35 UTC . Weather information available at that time is displayed.

METAR/TAF

ST. ANTHONY/NL    (show WxCam)

SPECI CYAY 241507Z AUTO 08011KT 1 3/4SM -SN SCT009 BKN014 OVC024 M03/M03 A3011 RMK ICG INTMT SLP200=
METAR CYAY 241500Z AUTO 10013KT 2 1/2SM -SN FEW009 BKN017 OVC026 M03/M04 A3011 RMK VIS VRB 1 3/4-3 ICG SLP201=
SPECI CYAY 241457Z AUTO 09012G17KT 3SM -SN SCT015 BKN021 OVC026 M03/M04 A3011 RMK ICG SLP200=
SPECI CYAY 241451Z AUTO 09012G18KT 5SM -SN FEW015 SCT020 OVC028 M02/M04 A3011 RMK ICG SLP201=
SPECI CYAY 241425Z AUTO 09015KT 6SM -SN FEW015 OVC026 M03/M04 A3011 RMK ICG INTMT SLP201=
SPECI CYAY 241415Z AUTO 09014G21KT 4SM -SN FEW015 OVC026 M03/M04 A3012 RMK ICG SLP202=
SPECI CYAY 241407Z AUTO 09017KT 3SM -SN SCT015 OVC024 M03/M04 A3012 RMK ICG INTMT SLP202=
SPECI CYAY 241404Z AUTO 09016KT 3SM -SN SCT015 SCT020 OVC026 M02/M04 A3012 RMK ICG INTMT SLP203=
METAR CYAY 241400Z AUTO 10014G20KT 3SM -SN SCT015 BKN020 OVC026 M02/M04 A3012 RMK ICG INTMT SLP204=
SPECI CYAY 241358Z AUTO 09017KT 3SM -SN SCT015 BKN020 OVC026 M02/M04 A3012 RMK ICG SLP204=
SPECI CYAY 241355Z AUTO 08015KT 3SM -SN SCT015 SCT020 OVC028 M02/M04 A3012 RMK ICG SLP204=
SPECI CYAY 241346Z AUTO 08015KT 4SM -SN BKN018 OVC032 M02/M04 A3012 RMK ICG INTMT SLP204=
SPECI CYAY 241338Z AUTO 08015G20KT 5SM -SN SCT018 OVC034 M02/M04 A3013 RMK ICG SLP205=
METAR CYAY 241300Z AUTO 10013G19KT 9SM -SN FEW018 BKN040 OVC046 M02/M04 A3013 RMK ICG INTMT SLP206=

TAF AMD CYAY 241511Z 2415/2502 08012G22KT P6SM -SN SCT010 OVC040
TEMPO 2415/2418 2SM -SN OVC015
FM241800 06015G25KT P6SM BKN140 TEMPO 2418/2420 P6SM -SN OVC040
FM242000 04015G25KT P6SM BKN180
BECMG 2500/2502 03012KT
RMK FCST BASED ON AUTO OBS. NXT FCST BY 242000Z=
Your time UTC time
Weather data provided by Environment Canada and NAV CANADA